createdAt,value
2019-01-06T00:02:39.681Z,98907.00
2019-01-06T00:06:49.530Z,98912.00
2019-01-06T00:13:03.055Z,98913.00
2019-01-06T00:17:10.046Z,98922.00
2019-01-06T00:22:18.768Z,98931.00
2019-01-06T00:27:24.434Z,98929.00
2019-01-06T00:33:40.466Z,98944.00
2019-01-06T00:37:48.345Z,98953.00
2019-01-06T00:42:59.976Z,98949.00
2019-01-06T00:47:11.989Z,98961.00
2019-01-06T00:51:19.950Z,98943.00
2019-01-06T00:56:27.657Z,98948.00
2019-01-06T01:02:44.465Z,98941.00
2019-01-06T01:07:53.179Z,98936.00
2019-01-06T01:12:05.974Z,98944.00
2019-01-06T01:16:29.019Z,98947.00
2019-01-06T01:20:37.844Z,98943.00
2019-01-06T01:25:03.157Z,98951.00
2019-01-06T01:30:12.909Z,98951.00
2019-01-06T01:34:20.862Z,98943.00
2019-01-06T01:38:28.930Z,98941.00
2019-01-06T01:42:36.986Z,98948.00
2019-01-06T01:47:43.593Z,98962.00
2019-01-06T01:51:51.718Z,98956.00
2019-01-06T01:56:00.483Z,98957.00
2019-01-06T02:00:08.533Z,98960.00
2019-01-06T02:04:18.432Z,98959.00
2019-01-06T02:08:32.379Z,98963.00
2019-01-06T02:12:40.301Z,98966.00
2019-01-06T02:21:05.133Z,98959.00
2019-01-06T02:25:49.304Z,98957.00
2019-01-06T02:30:16.212Z,98955.00
2019-01-06T02:34:23.358Z,98954.00
2019-01-06T02:38:34.200Z,98956.00
2019-01-06T02:42:43.336Z,98956.00
2019-01-06T02:46:52.159Z,98954.00
2019-01-06T02:50:59.166Z,98962.00
2019-01-06T02:55:07.438Z,98959.00
2019-01-06T02:59:15.359Z,98926.00
2019-01-06T03:05:29.125Z,98953.00
2019-01-06T03:09:46.034Z,98965.00
2019-01-06T03:14:24.356Z,98964.00
2019-01-06T03:20:37.678Z,98958.00
2019-01-06T03:24:46.533Z,98951.00
2019-01-06T03:29:54.138Z,98934.00
2019-01-06T03:34:39.143Z,98949.00
2019-01-06T03:38:50.093Z,98941.00
2019-01-06T03:43:02.205Z,98941.00
2019-01-06T03:49:13.725Z,98946.00
2019-01-06T03:54:23.394Z,98930.00
2019-01-06T03:58:47.219Z,98938.00
2019-01-06T04:02:59.072Z,98923.00
2019-01-06T04:08:08.723Z,98921.00
2019-01-06T04:13:19.391Z,98934.00
2019-01-06T04:18:27.012Z,98942.00
2019-01-06T04:22:35.232Z,98936.00
2019-01-06T04:27:13.535Z,98941.00
2019-01-06T04:31:35.589Z,98950.00
2019-01-06T04:35:45.466Z,98943.00
2019-01-06T04:42:00.867Z,98943.00
2019-01-06T04:46:22.998Z,98937.00
2019-01-06T04:50:30.998Z,98921.00
2019-01-06T04:54:58.303Z,98931.00
2019-01-06T04:59:08.365Z,98938.00
2019-01-06T05:03:16.524Z,98935.00
2019-01-06T05:07:31.348Z,98939.00
2019-01-06T05:11:41.272Z,98939.00
2019-01-06T05:17:54.545Z,98945.00
2019-01-06T05:22:02.559Z,98937.00
2019-01-06T05:26:11.393Z,98940.00
2019-01-06T05:30:49.788Z,98942.00
2019-01-06T05:34:57.737Z,98944.00
2019-01-06T05:39:08.582Z,98936.00
2019-01-06T05:43:16.844Z,98934.00
2019-01-06T05:47:28.733Z,98941.00
2019-01-06T05:51:38.506Z,98949.00
2019-01-06T05:55:51.408Z,98949.00
2019-01-06T06:00:03.096Z,98961.00
2019-01-06T06:04:11.095Z,98968.00
2019-01-06T06:08:22.896Z,98968.00
2019-01-06T06:12:30.751Z,98974.00
2019-01-06T06:16:38.637Z,98978.00
2019-01-06T06:21:19.833Z,98979.00
2019-01-06T06:27:31.461Z,98985.00
2019-01-06T06:31:42.046Z,98979.00
2019-01-06T06:35:50.872Z,98978.00
2019-01-06T06:40:02.760Z,98985.00
2019-01-06T06:44:10.966Z,98986.00
2019-01-06T06:48:21.054Z,98989.00
2019-01-06T06:52:29.171Z,98990.00
2019-01-06T06:56:37.098Z,98984.00
2019-01-06T07:00:48.991Z,98990.00
2019-01-06T07:05:28.067Z,98997.00
2019-01-06T07:10:34.608Z,99007.00
2019-01-06T07:14:42.330Z,99013.00
2019-01-06T07:18:53.278Z,99013.00
2019-01-06T07:23:11.226Z,99022.00
2019-01-06T07:27:19.351Z,99030.00
2019-01-06T07:31:26.652Z,99029.00
2019-01-06T07:35:34.726Z,99039.00
2019-01-06T07:39:42.861Z,99041.00
2019-01-06T07:43:56.563Z,99058.00
2019-01-06T07:49:03.308Z,99053.00
2019-01-06T07:53:26.551Z,99062.00
2019-01-06T07:59:40.212Z,99059.00
2019-01-06T08:04:48.909Z,99067.00
2019-01-06T08:08:57.041Z,99090.00
2019-01-06T08:13:05.863Z,99083.00
2019-01-06T08:17:13.911Z,99090.00
2019-01-06T08:21:29.726Z,99085.00
2019-01-06T08:25:37.866Z,99095.00
2019-01-06T08:29:45.661Z,99101.00
2019-01-06T08:33:53.633Z,99097.00
2019-01-06T08:38:11.506Z,99104.00
2019-01-06T08:42:22.331Z,99106.00
2019-01-06T08:46:30.335Z,99116.00
2019-01-06T08:51:12.844Z,99114.00
2019-01-06T08:55:36.847Z,99128.00
2019-01-06T08:59:44.886Z,99128.00
2019-01-06T09:04:50.443Z,99137.00
2019-01-06T09:09:00.128Z,99133.00
2019-01-06T09:13:07.017Z,99140.00
2019-01-06T09:17:15.742Z,99141.00
2019-01-06T09:21:26.591Z,99139.00
2019-01-06T09:25:40.918Z,99141.00
2019-01-06T09:29:50.634Z,99155.00
2019-01-06T09:36:04.663Z,99149.00
2019-01-06T09:40:13.066Z,99151.00
2019-01-06T09:44:36.004Z,99155.00
2019-01-06T09:48:56.111Z,99159.00
2019-01-06T09:53:06.830Z,99147.00
2019-01-06T09:57:17.550Z,99153.00
2019-01-06T10:01:28.328Z,99148.00
2019-01-06T10:05:36.216Z,99151.00
2019-01-06T10:10:00.238Z,99155.00
2019-01-06T10:14:07.836Z,99159.00
2019-01-06T10:18:18.664Z,99151.00
2019-01-06T10:22:32.424Z,99153.00
2019-01-06T10:26:44.402Z,99156.00
2019-01-06T10:30:55.205Z,99147.00
2019-01-06T10:35:04.035Z,99153.00
2019-01-06T10:39:16.463Z,99155.00
2019-01-06T10:43:25.294Z,99143.00
2019-01-06T10:47:32.201Z,99146.00
2019-01-06T10:53:42.744Z,99152.00
2019-01-06T10:57:57.738Z,99155.00
2019-01-06T11:02:05.945Z,99157.00
2019-01-06T11:07:14.840Z,99153.00
2019-01-06T11:11:58.055Z,99159.00
2019-01-06T11:17:03.864Z,99155.00
2019-01-06T11:21:20.823Z,99159.00
2019-01-06T11:25:31.725Z,99155.00
2019-01-06T11:29:45.675Z,99156.00
2019-01-06T11:33:53.546Z,99161.00
2019-01-06T11:40:03.705Z,99158.00
2019-01-06T11:45:20.503Z,99161.00
2019-01-06T11:49:28.497Z,99144.00
2019-01-06T11:53:36.237Z,99158.00
2019-01-06T11:59:48.031Z,99147.00
2019-01-06T12:03:54.880Z,99144.00
2019-01-06T12:08:05.905Z,99147.00
2019-01-06T12:12:16.613Z,99141.00
2019-01-06T12:16:39.562Z,99140.00
2019-01-06T12:22:53.025Z,99147.00
2019-01-06T12:27:00.925Z,99155.00
2019-01-06T12:31:18.860Z,99152.00
2019-01-06T12:36:29.677Z,99147.00
2019-01-06T12:40:39.545Z,99148.00
2019-01-06T12:44:47.754Z,99153.00
2019-01-06T12:49:58.550Z,99154.00
2019-01-06T12:54:08.276Z,99161.00
2019-01-06T12:58:23.154Z,99165.00
2019-01-06T13:02:45.304Z,99167.00
2019-01-06T13:07:53.957Z,99171.00
2019-01-06T13:12:01.920Z,99171.00
2019-01-06T13:16:09.732Z,99176.00
2019-01-06T13:20:34.699Z,99185.00
2019-01-06T13:25:01.023Z,99189.00
2019-01-06T13:29:10.875Z,99188.00
2019-01-06T13:33:52.275Z,99197.00
2019-01-06T13:39:06.929Z,99198.00
2019-01-06T13:43:33.847Z,99203.00
2019-01-06T13:47:47.674Z,99219.00
2019-01-06T13:51:55.609Z,99208.00
2019-01-06T13:56:03.858Z,99218.00
2019-01-06T14:00:12.961Z,99225.00
2019-01-06T14:04:21.063Z,99216.00
2019-01-06T14:10:34.705Z,99212.00
2019-01-06T14:14:53.977Z,99220.00
2019-01-06T14:19:01.700Z,99218.00
2019-01-06T14:23:09.447Z,99225.00
2019-01-06T14:27:17.417Z,99222.00
2019-01-06T14:32:27.218Z,99235.00
2019-01-06T14:36:35.040Z,99229.00
2019-01-06T14:40:46.822Z,99235.00
2019-01-06T14:44:54.864Z,99235.00
2019-01-06T14:50:02.533Z,99239.00
2019-01-06T14:54:10.673Z,99235.00
2019-01-06T14:58:18.735Z,99245.00
2019-01-06T15:02:26.822Z,99243.00
2019-01-06T15:07:06.109Z,99253.00
2019-01-06T15:11:13.978Z,99243.00
2019-01-06T15:15:55.149Z,99246.00
2019-01-06T15:20:09.940Z,99253.00
2019-01-06T15:25:18.699Z,99249.00
2019-01-06T15:29:26.573Z,99254.00
2019-01-06T15:35:37.086Z,99265.00
2019-01-06T15:39:49.971Z,99267.00
2019-01-06T15:44:06.727Z,99267.00
2019-01-06T15:48:14.614Z,99267.00
2019-01-06T15:53:24.291Z,99270.00
2019-01-06T15:58:29.879Z,99266.00
2019-01-06T16:02:41.644Z,99271.00
2019-01-06T16:06:49.638Z,99266.00
2019-01-06T16:10:57.539Z,99272.00
2019-01-06T16:15:17.176Z,99272.00
2019-01-06T16:19:28.853Z,99269.00
2019-01-06T16:23:36.758Z,99276.00
2019-01-06T16:27:51.222Z,99280.00
2019-01-06T16:34:04.795Z,99279.00
2019-01-06T16:38:12.943Z,99282.00
2019-01-06T16:42:20.958Z,99290.00
2019-01-06T16:48:37.451Z,99290.00
2019-01-06T16:52:45.526Z,99281.00
2019-01-06T16:56:53.521Z,99279.00
2019-01-06T17:01:59.178Z,99284.00
2019-01-06T17:06:22.225Z,99289.00
2019-01-06T17:10:32.084Z,99287.00
2019-01-06T17:15:43.682Z,99287.00
2019-01-06T17:20:05.541Z,99289.00
2019-01-06T17:26:16.622Z,99292.00
2019-01-06T17:32:27.067Z,99289.00
2019-01-06T17:37:38.512Z,99282.00
2019-01-06T17:42:19.145Z,99285.00
2019-01-06T17:47:03.422Z,99289.00
2019-01-06T17:51:11.357Z,99296.00
2019-01-06T17:55:19.473Z,99300.00
2019-01-06T18:01:35.575Z,99297.00
2019-01-06T18:05:43.197Z,99310.00
2019-01-06T18:09:51.086Z,99304.00
2019-01-06T18:14:12.961Z,99295.00
2019-01-06T18:18:21.750Z,99313.00
2019-01-06T18:22:36.233Z,99313.00
2019-01-06T18:26:38.798Z,99312.00
2019-01-06T18:30:46.725Z,99307.00
2019-01-06T18:34:54.792Z,99313.00
2019-01-06T18:40:02.404Z,99310.00
2019-01-06T18:45:09.493Z,99312.00
2019-01-06T18:49:17.086Z,99317.00
2019-01-06T18:53:27.909Z,99315.00
2019-01-06T18:57:36.053Z,99318.00
2019-01-06T19:01:43.981Z,99316.00
2019-01-06T19:06:00.756Z,99313.00
2019-01-06T19:10:08.998Z,99314.00
2019-01-06T19:14:23.933Z,99323.00
2019-01-06T19:18:36.760Z,99319.00
2019-01-06T19:22:44.753Z,99332.00
2019-01-06T19:27:56.237Z,99321.00
2019-01-06T19:32:04.032Z,99333.00
2019-01-06T19:36:12.024Z,99332.00
2019-01-06T19:41:18.720Z,99335.00
2019-01-06T19:45:27.467Z,99335.00
2019-01-06T19:49:38.147Z,99337.00
2019-01-06T19:53:45.446Z,99342.00
2019-01-06T19:57:53.588Z,99335.00
2019-01-06T20:02:01.600Z,99339.00
2019-01-06T20:06:10.386Z,99345.00
2019-01-06T20:10:18.929Z,99339.00
2019-01-06T20:14:26.039Z,99336.00
2019-01-06T20:18:38.422Z,99326.00
2019-01-06T20:22:48.216Z,99318.00
2019-01-06T20:26:56.985Z,99315.00
2019-01-06T20:31:07.856Z,99318.00
2019-01-06T20:35:50.009Z,99341.00
2019-01-06T20:40:56.747Z,99330.00
2019-01-06T20:45:07.400Z,99326.00
2019-01-06T20:49:20.151Z,99336.00
2019-01-06T20:53:29.436Z,99338.00
2019-01-06T20:57:40.503Z,99331.00
2019-01-06T21:01:54.141Z,99325.00
2019-01-06T21:06:09.569Z,99328.00
2019-01-06T21:10:27.815Z,99340.00
2019-01-06T21:14:35.837Z,99342.00
2019-01-06T21:18:58.761Z,99341.00
2019-01-06T21:23:16.342Z,99331.00
2019-01-06T21:27:24.727Z,99332.00
2019-01-06T21:33:37.314Z,99342.00
2019-01-06T21:37:48.041Z,99356.00
2019-01-06T21:41:56.491Z,99345.00
2019-01-06T21:46:10.196Z,99355.00
2019-01-06T21:50:20.047Z,99355.00
2019-01-06T21:55:30.624Z,99361.00
2019-01-06T21:59:41.528Z,99351.00
2019-01-06T22:03:49.306Z,99347.00
2019-01-06T22:10:03.666Z,99351.00
2019-01-06T22:14:17.663Z,99343.00
2019-01-06T22:20:31.638Z,99351.00
2019-01-06T22:24:39.892Z,99346.00
2019-01-06T22:29:20.526Z,99341.00
2019-01-06T22:33:28.656Z,99340.00
2019-01-06T22:39:44.960Z,99346.00
2019-01-06T22:44:25.156Z,99352.00
2019-01-06T22:48:36.087Z,99339.00
2019-01-06T22:52:44.235Z,99347.00
2019-01-06T22:56:52.869Z,99331.00
2019-01-06T23:01:04.869Z,99336.00
2019-01-06T23:05:13.775Z,99345.00
2019-01-06T23:09:21.740Z,99335.00
2019-01-06T23:15:33.075Z,99340.00
2019-01-06T23:19:56.180Z,99355.00
2019-01-06T23:25:06.975Z,99351.00
2019-01-06T23:29:15.200Z,99355.00
2019-01-06T23:33:32.342Z,99350.00
2019-01-06T23:38:40.825Z,99349.00
2019-01-06T23:42:52.237Z,99352.00
2019-01-06T23:47:59.909Z,99344.00
2019-01-06T23:53:05.504Z,99341.00
2019-01-06T23:57:12.432Z,99345.00
